createdAt,value
2023-07-01T00:01:16.358Z,8.10
2023-07-01T00:05:00.296Z,9.30
2023-07-01T00:08:44.076Z,11.60
2023-07-01T00:12:28.720Z,9.60
2023-07-01T00:15:57.598Z,8.30
2023-07-01T00:19:55.324Z,8.00
2023-07-01T00:23:23.552Z,7.10
2023-07-01T00:27:00.551Z,7.30
2023-07-01T00:30:38.397Z,8.00
2023-07-01T00:34:15.801Z,11.00
2023-07-01T00:37:53.695Z,5.60
2023-07-01T00:41:31.192Z,9.70
2023-07-01T00:45:27.912Z,8.30
2023-07-01T00:49:11.530Z,8.00
2023-07-01T00:52:58.452Z,12.10
2023-07-01T00:56:44.459Z,10.00
2023-07-01T01:00:15.167Z,7.50
2023-07-01T01:04:22.122Z,8.80
2023-07-01T01:08:15.382Z,8.20
2023-07-01T01:11:46.455Z,11.00
2023-07-01T01:15:37.701Z,11.90
2023-07-01T01:19:08.642Z,7.60
2023-07-01T01:23:09.367Z,7.80
2023-07-01T01:27:00.999Z,7.40
2023-07-01T01:30:46.758Z,12.80
2023-07-01T01:34:30.209Z,8.60
2023-07-01T01:38:29.113Z,12.40
2023-07-01T01:42:22.838Z,14.40
2023-07-01T01:45:50.204Z,10.00
2023-07-01T01:49:49.023Z,9.80
2023-07-01T01:53:15.336Z,8.00
2023-07-01T01:56:52.795Z,9.40
2023-07-01T02:00:49.842Z,10.10
2023-07-01T02:04:18.382Z,9.20
2023-07-01T02:07:59.883Z,10.40
2023-07-01T02:11:34.621Z,11.50
2023-07-01T02:15:11.561Z,10.40
2023-07-01T02:19:08.058Z,11.60
2023-07-01T02:22:51.581Z,10.70
2023-07-01T02:26:34.700Z,8.70
2023-07-01T02:29:59.842Z,11.60
2023-07-01T02:34:00.939Z,14.00
2023-07-01T02:37:44.912Z,11.90
2023-07-01T02:41:10.004Z,10.00
2023-07-01T02:44:48.466Z,11.40
2023-07-01T02:48:24.993Z,10.10
2023-07-01T02:52:04.409Z,9.10
2023-07-01T02:55:41.880Z,10.90
2023-07-01T02:59:38.113Z,11.90
2023-07-01T03:03:08.830Z,12.90
2023-07-01T03:06:40.461Z,12.60
2023-07-01T03:10:18.105Z,12.40
2023-07-01T03:13:55.867Z,9.90
2023-07-01T03:17:53.469Z,10.30
2023-07-01T03:21:17.872Z,10.70
2023-07-01T03:25:14.477Z,10.90
2023-07-01T03:28:40.341Z,11.70
2023-07-01T03:32:17.898Z,14.10
2023-07-01T03:35:57.111Z,10.40
2023-07-01T03:39:52.292Z,9.80
2023-07-01T03:43:17.140Z,9.20
2023-07-01T03:46:54.630Z,11.10
2023-07-01T03:50:33.684Z,8.50
2023-07-01T03:54:10.045Z,11.50
2023-07-01T03:58:08.560Z,12.90
2023-07-01T04:01:55.409Z,11.30
2023-07-01T04:05:40.234Z,10.60
2023-07-01T04:09:12.038Z,12.80
2023-07-01T04:13:05.276Z,11.70
2023-07-01T04:16:30.537Z,12.50
2023-07-01T04:20:26.181Z,12.20
2023-07-01T04:24:12.039Z,16.00
2023-07-01T04:27:37.550Z,14.30
2023-07-01T04:31:14.417Z,15.80
2023-07-01T04:35:11.264Z,13.00
2023-07-01T04:38:35.698Z,11.30
2023-07-01T04:42:14.969Z,14.70
2023-07-01T04:45:51.530Z,11.60
2023-07-01T04:49:48.059Z,10.80
2023-07-01T04:53:12.643Z,10.60
2023-07-01T04:56:50.975Z,11.30
2023-07-01T05:00:28.454Z,14.10
2023-07-01T05:04:07.412Z,13.10
2023-07-01T05:07:43.584Z,11.50
2023-07-01T05:11:21.174Z,10.60
2023-07-01T05:14:58.874Z,12.30
2023-07-01T05:18:37.143Z,12.00
2023-07-01T05:22:14.649Z,15.40
2023-07-01T05:25:52.012Z,15.50
2023-07-01T05:29:48.418Z,13.70
2023-07-01T05:33:13.496Z,13.90
2023-07-01T05:36:50.942Z,13.70
2023-07-01T05:40:28.046Z,15.50
2023-07-01T05:44:28.688Z,15.10
2023-07-01T05:48:13.417Z,19.10
2023-07-01T05:51:39.704Z,15.30
2023-07-01T05:55:17.358Z,13.20
2023-07-01T05:59:13.734Z,12.30
2023-07-01T06:02:57.306Z,15.80
2023-07-01T06:06:22.747Z,14.50
2023-07-01T06:09:59.939Z,14.60
2023-07-01T06:13:39.390Z,14.40
2023-07-01T06:17:15.339Z,11.20
2023-07-01T06:20:52.747Z,11.60
2023-07-01T06:24:33.383Z,12.60
2023-07-01T06:28:08.087Z,11.20
2023-07-01T06:31:47.435Z,12.00
2023-07-01T06:35:44.930Z,10.20
2023-07-01T06:39:13.013Z,12.70
2023-07-01T06:42:50.102Z,13.10
2023-07-01T06:46:31.846Z,12.20
2023-07-01T06:50:04.210Z,12.50
2023-07-01T06:54:02.587Z,10.30
2023-07-01T06:57:48.690Z,11.50
2023-07-01T07:01:13.366Z,10.60
2023-07-01T07:05:10.141Z,10.60
2023-07-01T07:08:35.038Z,12.40
2023-07-01T07:12:31.399Z,12.10
2023-07-01T07:16:17.204Z,11.20
2023-07-01T07:19:45.267Z,9.60
2023-07-01T07:23:23.268Z,13.10
2023-07-01T07:27:02.764Z,14.80
2023-07-01T07:30:57.263Z,12.50
2023-07-01T07:34:43.763Z,15.30
2023-07-01T07:38:08.967Z,12.90
2023-07-01T07:42:08.841Z,14.50
2023-07-01T07:45:33.524Z,14.90
2023-07-01T07:49:31.216Z,17.40
2023-07-01T07:52:56.406Z,15.70
2023-07-01T07:56:58.684Z,12.30
2023-07-01T08:00:23.253Z,17.10
2023-07-01T08:04:21.886Z,13.00
2023-07-01T08:08:05.624Z,17.60
2023-07-01T08:11:30.250Z,16.30
2023-07-01T08:15:09.857Z,17.50
2023-07-01T08:18:45.620Z,15.40
2023-07-01T08:22:42.405Z,16.80
2023-07-01T08:26:09.728Z,17.40
2023-07-01T08:30:04.326Z,17.40
2023-07-01T08:33:29.462Z,16.20
2023-07-01T08:37:07.186Z,15.90
2023-07-01T08:40:45.679Z,14.20
2023-07-01T08:44:41.828Z,11.80
2023-07-01T08:48:08.138Z,13.60
2023-07-01T08:51:46.806Z,14.00
2023-07-01T08:55:24.335Z,16.50
2023-07-01T08:59:01.355Z,13.70
2023-07-01T09:02:38.625Z,13.80
2023-07-01T09:06:17.129Z,16.50
2023-07-01T09:10:12.916Z,17.90
2023-07-01T09:13:38.037Z,19.10
2023-07-01T09:17:32.060Z,18.00
2023-07-01T09:21:20.200Z,15.80
2023-07-01T09:24:45.827Z,12.60
2023-07-01T09:28:33.200Z,10.10
2023-07-01T09:32:01.299Z,9.10
2023-07-01T09:35:44.222Z,7.20
2023-07-01T09:39:31.410Z,10.00
2023-07-01T09:43:16.544Z,8.50
2023-07-01T09:46:47.934Z,8.40
2023-07-01T09:50:24.322Z,7.80
2023-07-01T09:54:29.464Z,9.90
2023-07-01T09:57:55.257Z,10.30
2023-07-01T10:01:32.011Z,12.60
2023-07-01T10:05:10.429Z,13.90
2023-07-01T10:08:47.365Z,14.00
2023-07-01T10:12:25.871Z,13.80
2023-07-01T10:16:06.161Z,11.10
2023-07-01T10:19:43.386Z,11.50
2023-07-01T10:23:20.462Z,14.10
2023-07-01T10:26:56.079Z,10.90
2023-07-01T10:30:48.994Z,15.70
2023-07-01T10:34:15.303Z,12.50
2023-07-01T10:38:22.334Z,12.70
2023-07-01T10:42:31.496Z,14.00
2023-07-01T10:46:21.945Z,14.80
2023-07-01T10:50:08.676Z,14.70
2023-07-01T10:53:59.795Z,14.80
2023-07-01T10:58:19.786Z,15.00
2023-07-01T11:01:46.469Z,15.90
2023-07-01T11:05:22.772Z,13.40
2023-07-01T11:09:31.727Z,15.40
2023-07-01T11:13:18.145Z,14.70
2023-07-01T11:16:42.695Z,13.20
2023-07-01T11:20:20.454Z,13.50
2023-07-01T11:24:23.236Z,12.00
2023-07-01T11:27:47.466Z,16.40
2023-07-01T11:31:45.296Z,13.20
2023-07-01T11:35:12.068Z,15.40
2023-07-01T11:38:50.128Z,16.70
2023-07-01T11:42:46.514Z,15.10
2023-07-01T11:46:13.800Z,18.20
2023-07-01T11:49:48.683Z,20.20
2023-07-01T11:53:57.463Z,16.80
2023-07-01T11:57:42.978Z,14.90
2023-07-01T12:01:25.064Z,16.30
2023-07-01T12:04:57.392Z,17.80
2023-07-01T12:09:06.853Z,15.30
2023-07-01T12:12:33.269Z,14.50
2023-07-01T12:16:43.450Z,19.70
2023-07-01T12:20:32.419Z,16.50
2023-07-01T12:24:23.612Z,18.20
2023-07-01T12:28:10.310Z,15.80
2023-07-01T12:31:54.924Z,15.50
2023-07-01T12:35:44.390Z,16.10
2023-07-01T12:39:32.425Z,16.30
2023-07-01T12:43:15.949Z,14.30
2023-07-01T12:47:02.037Z,14.30
2023-07-01T12:50:46.124Z,15.80
2023-07-01T12:57:49.764Z,21.20
2023-07-01T13:01:26.786Z,18.40
2023-07-01T13:05:05.102Z,14.90
2023-07-01T13:08:41.708Z,22.00
2023-07-01T13:12:22.155Z,21.40
2023-07-01T13:15:56.964Z,18.90
2023-07-01T13:19:34.624Z,29.70
2023-07-01T13:23:12.407Z,17.10
2023-07-01T13:26:56.887Z,20.40
2023-07-01T13:30:48.238Z,18.40
2023-07-01T13:34:13.319Z,17.00
2023-07-01T13:38:06.787Z,18.00
2023-07-01T13:41:55.074Z,14.80
2023-07-01T13:45:39.298Z,14.10
2023-07-01T13:49:09.262Z,14.90
2023-07-01T13:52:44.055Z,14.50
2023-07-01T13:56:21.859Z,12.90
2023-07-01T13:59:59.651Z,17.30
2023-07-01T14:04:00.728Z,14.20
2023-07-01T14:07:25.615Z,18.70
2023-07-01T14:11:03.302Z,17.60
2023-07-01T14:14:40.841Z,16.30
2023-07-01T14:18:18.436Z,18.30
2023-07-01T14:21:57.862Z,24.20
2023-07-01T14:25:38.584Z,15.90
2023-07-01T14:29:31.401Z,17.10
2023-07-01T14:33:14.735Z,21.40
2023-07-01T14:36:58.675Z,21.30
2023-07-01T14:40:43.476Z,21.30
2023-07-01T14:44:17.349Z,34.20
2023-07-01T14:47:45.776Z,15.10
2023-07-01T14:51:23.823Z,14.40
2023-07-01T14:55:01.395Z,13.10
2023-07-01T14:58:57.708Z,13.80
2023-07-01T15:02:22.176Z,14.90
2023-07-01T15:05:59.777Z,14.20
2023-07-01T15:09:37.446Z,16.60
2023-07-01T15:13:34.309Z,15.30
2023-07-01T15:17:01.215Z,18.10
2023-07-01T15:20:36.568Z,17.50
2023-07-01T15:24:14.214Z,16.10
2023-07-01T15:28:10.949Z,14.40
2023-07-01T15:31:54.833Z,13.60
2023-07-01T15:35:27.419Z,18.40
2023-07-01T15:39:17.697Z,21.30
2023-07-01T15:42:45.877Z,22.60
2023-07-01T15:46:21.227Z,15.90
2023-07-01T15:49:58.778Z,24.50
2023-07-01T15:53:36.146Z,14.90
2023-07-01T15:57:33.550Z,40.30
2023-07-01T16:01:18.429Z,54.60
2023-07-01T16:05:12.374Z,18.60
2023-07-01T16:08:36.875Z,19.30
2023-07-01T16:12:35.221Z,31.00
2023-07-01T16:16:28.069Z,15.90
2023-07-01T16:20:24.755Z,19.30
2023-07-01T16:24:53.005Z,18.70
2023-07-01T16:28:37.068Z,19.70
2023-07-01T16:32:04.090Z,24.70
2023-07-01T16:35:45.607Z,29.20
2023-07-01T16:39:44.949Z,32.10
2023-07-01T16:43:11.555Z,30.20
2023-07-01T16:46:50.679Z,32.70
2023-07-01T16:50:54.972Z,16.30
2023-07-01T16:54:38.372Z,21.80
2023-07-01T16:58:05.118Z,14.70
2023-07-01T17:02:01.019Z,15.40
2023-07-01T17:05:27.086Z,19.30
2023-07-01T17:09:07.067Z,21.80
2023-07-01T17:12:59.759Z,16.10
2023-07-01T17:16:26.114Z,13.20
2023-07-01T17:20:05.107Z,17.50
2023-07-01T17:24:01.983Z,26.30
2023-07-01T17:27:45.283Z,20.80
2023-07-01T17:31:28.421Z,11.70
2023-07-01T17:35:10.745Z,15.40
2023-07-01T17:38:36.643Z,17.10
2023-07-01T17:42:33.344Z,12.90
2023-07-01T17:45:59.212Z,15.50
2023-07-01T17:49:36.984Z,15.80
2023-07-01T17:53:14.682Z,14.40
2023-07-01T17:56:52.512Z,13.90
2023-07-01T18:00:29.807Z,12.50
2023-07-01T18:04:28.228Z,13.20
2023-07-01T18:07:52.633Z,15.00
2023-07-01T18:11:49.256Z,11.60
2023-07-01T18:15:34.405Z,18.30
2023-07-01T18:19:02.271Z,14.50
2023-07-01T18:22:38.647Z,19.20
2023-07-01T18:26:15.567Z,15.40
2023-07-01T18:30:13.989Z,13.00
2023-07-01T18:33:39.774Z,15.00
2023-07-01T18:37:18.021Z,15.20
2023-07-01T18:40:56.725Z,14.60
2023-07-01T18:44:53.017Z,14.10
2023-07-01T18:48:37.809Z,16.80
2023-07-01T18:52:04.196Z,14.10
2023-07-01T18:56:00.448Z,12.10
2023-07-01T18:59:44.350Z,13.00
2023-07-01T19:03:11.513Z,19.10
2023-07-01T19:06:49.117Z,18.90
2023-07-01T19:10:26.774Z,15.50
2023-07-01T19:14:04.770Z,17.90
2023-07-01T19:18:03.857Z,17.10
2023-07-01T19:21:30.485Z,16.20
2023-07-01T19:25:25.957Z,17.10
2023-07-01T19:29:11.936Z,19.10
2023-07-01T19:32:38.244Z,18.50
2023-07-01T19:36:14.193Z,21.20
2023-07-01T19:39:52.093Z,17.90
2023-07-01T19:43:30.655Z,19.80
2023-07-01T19:47:07.432Z,17.00
2023-07-01T19:50:45.241Z,19.10
2023-07-01T19:54:25.494Z,19.80
2023-07-01T19:58:01.159Z,19.70
2023-07-01T20:01:38.083Z,19.50
2023-07-01T20:05:15.991Z,13.90
2023-07-01T20:08:53.460Z,19.10
2023-07-01T20:12:31.089Z,15.40
2023-07-01T20:16:08.883Z,16.20
2023-07-01T20:19:48.753Z,17.60
2023-07-01T20:23:24.026Z,17.60
2023-07-01T20:27:03.049Z,17.40
2023-07-01T20:30:40.711Z,20.10
2023-07-01T20:34:36.174Z,15.30
2023-07-01T20:38:00.777Z,15.90
2023-07-01T20:41:38.363Z,17.10
2023-07-01T20:45:15.912Z,16.30
2023-07-01T20:49:12.791Z,16.80
2023-07-01T20:52:39.478Z,16.70
2023-07-01T20:56:33.753Z,14.20
2023-07-01T20:59:58.275Z,13.70
2023-07-01T21:03:36.138Z,12.70
2023-07-01T21:07:32.440Z,13.50
2023-07-01T21:11:16.466Z,16.00
2023-07-01T21:15:02.877Z,12.70
2023-07-01T21:18:46.310Z,16.30
2023-07-01T21:22:30.408Z,16.90
2023-07-01T21:25:59.283Z,11.20
2023-07-01T21:29:37.021Z,16.60
2023-07-01T21:33:33.845Z,15.80
2023-07-01T21:36:58.600Z,17.50
2023-07-01T21:40:45.616Z,15.90
2023-07-01T21:44:14.865Z,15.80
2023-07-01T21:47:51.982Z,14.10
2023-07-01T21:51:29.130Z,15.30
2023-07-01T21:55:19.064Z,15.40
2023-07-01T21:58:55.199Z,13.80
2023-07-01T22:02:25.642Z,14.00
2023-07-01T22:06:00.673Z,15.50
2023-07-01T22:09:39.387Z,9.70
2023-07-01T22:13:35.730Z,13.50
2023-07-01T22:17:19.349Z,17.30
2023-07-01T22:20:43.533Z,13.70
2023-07-01T22:24:21.264Z,11.50
2023-07-01T22:27:59.062Z,16.10
2023-07-01T22:31:36.727Z,11.00
2023-07-01T22:35:14.687Z,15.50
2023-07-01T22:38:52.147Z,10.20
2023-07-01T22:42:29.578Z,12.70
2023-07-01T22:46:28.280Z,13.80
2023-07-01T22:49:57.045Z,16.50
2023-07-01T22:53:32.271Z,16.20
2023-07-01T22:57:09.989Z,16.30
2023-07-01T23:01:07.415Z,16.60
2023-07-01T23:04:32.370Z,14.30
2023-07-01T23:08:09.602Z,12.30
2023-07-01T23:11:47.177Z,12.20
2023-07-01T23:15:25.349Z,13.40
2023-07-01T23:19:03.000Z,12.60
2023-07-01T23:23:03.292Z,17.40
2023-07-01T23:26:27.885Z,13.30
2023-07-01T23:30:06.341Z,13.10
2023-07-01T23:34:02.612Z,14.10
2023-07-01T23:37:48.404Z,16.90
2023-07-01T23:41:32.723Z,17.40
2023-07-01T23:44:57.336Z,19.20
2023-07-01T23:48:55.415Z,18.70
2023-07-01T23:52:20.312Z,17.20
2023-07-01T23:55:58.381Z,16.90
2023-07-01T23:59:35.688Z,16.50
